createdAt,value
2018-04-17T00:00:51.446Z,950.99
2018-04-17T00:01:51.443Z,950.98
2018-04-17T00:02:51.438Z,950.99
2018-04-17T00:03:51.446Z,951.03
2018-04-17T00:04:51.422Z,951.07
2018-04-17T00:05:51.428Z,951.02
2018-04-17T00:06:51.424Z,950.99
2018-04-17T00:07:51.412Z,951.00
2018-04-17T00:08:51.404Z,951.04
2018-04-17T00:09:51.405Z,951.04
2018-04-17T00:10:51.400Z,951.04
2018-04-17T00:11:51.386Z,951.05
2018-04-17T00:12:51.390Z,951.02
2018-04-17T00:13:51.385Z,951.06
2018-04-17T00:14:51.385Z,951.08
2018-04-17T00:15:51.370Z,951.04
2018-04-17T00:16:51.378Z,951.06
2018-04-17T00:17:51.363Z,951.07
2018-04-17T00:18:51.358Z,951.07
2018-04-17T00:19:51.361Z,951.08
2018-04-17T00:20:51.349Z,951.07
2018-04-17T00:21:51.336Z,951.05
2018-04-17T00:22:51.342Z,951.04
2018-04-17T00:23:51.335Z,951.07
2018-04-17T00:24:51.326Z,951.02
2018-04-17T00:25:51.341Z,951.03
2018-04-17T00:26:51.318Z,951.01
2018-04-17T00:27:51.309Z,951.03
2018-04-17T00:28:51.308Z,950.99
2018-04-17T00:29:51.292Z,951.01
2018-04-17T00:30:51.294Z,951.01
2018-04-17T00:31:51.294Z,950.97
2018-04-17T00:32:51.284Z,950.98
2018-04-17T00:33:51.317Z,950.99
2018-04-17T00:34:51.279Z,950.97
2018-04-17T00:35:51.268Z,951.00
2018-04-17T00:36:51.265Z,950.99
2018-04-17T00:37:51.256Z,950.98
2018-04-17T00:38:51.250Z,950.97
2018-04-17T00:39:51.244Z,950.98
2018-04-17T00:40:51.248Z,950.98
2018-04-17T00:41:51.241Z,950.97
2018-04-17T00:42:51.261Z,950.98
2018-04-17T00:43:51.228Z,950.97
2018-04-17T00:44:51.229Z,950.93
2018-04-17T00:45:51.219Z,950.91
2018-04-17T00:46:51.219Z,950.88
2018-04-17T00:47:51.206Z,950.91
2018-04-17T00:48:51.203Z,950.89
2018-04-17T00:49:51.214Z,950.85
2018-04-17T00:50:51.190Z,950.87
2018-04-17T00:51:51.192Z,950.87
2018-04-17T00:52:51.183Z,950.88
2018-04-17T00:53:51.185Z,950.86
2018-04-17T00:54:51.174Z,950.90
2018-04-17T00:55:51.173Z,950.88
2018-04-17T00:56:51.203Z,950.87
2018-04-17T00:57:51.157Z,950.86
2018-04-17T00:58:51.155Z,950.84
2018-04-17T00:59:51.174Z,950.82
2018-04-17T01:00:51.168Z,950.84
2018-04-17T01:01:51.137Z,950.85
2018-04-17T01:02:51.128Z,950.89
2018-04-17T01:03:51.135Z,950.90
2018-04-17T01:04:51.109Z,950.90
2018-04-17T01:05:51.115Z,950.89
2018-04-17T01:06:51.117Z,950.91
2018-04-17T01:07:51.130Z,950.89
2018-04-17T01:08:51.100Z,950.89
2018-04-17T01:09:51.104Z,950.88
2018-04-17T01:10:51.092Z,950.90
2018-04-17T01:11:51.073Z,950.87
2018-04-17T01:12:51.070Z,950.85
2018-04-17T01:13:51.075Z,950.87
2018-04-17T01:14:51.075Z,950.89
2018-04-17T01:15:51.080Z,950.94
2018-04-17T01:16:51.062Z,950.93
2018-04-17T01:17:51.052Z,950.94
2018-04-17T01:18:51.034Z,950.95
2018-04-17T01:19:51.047Z,950.94
2018-04-17T01:20:51.045Z,950.93
2018-04-17T01:21:51.019Z,950.93
2018-04-17T01:22:51.025Z,950.94
2018-04-17T01:23:51.019Z,950.95
2018-04-17T01:24:50.996Z,950.92
2018-04-17T01:25:51.006Z,950.92
2018-04-17T01:26:50.990Z,950.98
2018-04-17T01:27:50.981Z,950.93
2018-04-17T01:28:50.999Z,950.95
2018-04-17T01:29:50.974Z,950.96
2018-04-17T02:02:10.713Z,951.26
2018-04-17T02:03:10.612Z,951.26
2018-04-17T02:05:03.506Z,951.28
2018-04-17T02:06:03.470Z,951.28
2018-04-17T02:07:56.385Z,951.33
2018-04-17T02:08:56.353Z,951.29
2018-04-17T02:10:49.242Z,951.34
2018-04-17T02:11:49.233Z,951.33
2018-04-17T02:13:42.169Z,951.31
2018-04-17T02:14:42.134Z,951.36
2018-04-17T02:16:35.040Z,951.32
2018-04-17T02:17:34.999Z,951.39
2018-04-17T02:19:27.981Z,951.40
2018-04-17T02:20:27.945Z,951.42
2018-04-17T02:22:20.893Z,951.42
2018-04-17T02:23:20.818Z,951.42
2018-04-17T02:25:13.718Z,951.45
2018-04-17T02:26:13.721Z,951.48
2018-04-17T02:28:06.640Z,951.48
2018-04-17T02:29:06.609Z,951.48
2018-04-17T02:31:50.573Z,951.49
2018-04-17T02:32:50.541Z,951.52
2018-04-17T02:34:43.516Z,951.49
2018-04-17T02:35:43.417Z,951.52
2018-04-17T02:37:36.328Z,951.51
2018-04-17T02:38:36.308Z,951.54
2018-04-17T02:39:36.289Z,951.51
2018-04-17T02:40:36.294Z,951.53
2018-04-17T02:41:36.281Z,951.57
2018-04-17T02:42:36.284Z,951.56
2018-04-17T02:43:36.271Z,951.58
2018-04-17T02:44:36.277Z,951.59
2018-04-17T02:45:36.254Z,951.56
2018-04-17T02:46:36.265Z,951.58
2018-04-17T02:47:36.259Z,951.59
2018-04-17T02:48:36.238Z,951.59
2018-04-17T02:49:36.244Z,951.60
2018-04-17T02:50:36.241Z,951.60
2018-04-17T02:51:36.221Z,951.60
2018-04-17T02:52:36.219Z,951.59
2018-04-17T02:53:36.200Z,951.63
2018-04-17T02:54:36.199Z,951.64
2018-04-17T02:55:36.194Z,951.63
2018-04-17T02:56:36.199Z,951.64
2018-04-17T02:57:36.199Z,951.63
2018-04-17T02:58:36.181Z,951.63
2018-04-17T02:59:36.162Z,951.65
2018-04-17T03:00:36.159Z,951.62
2018-04-17T03:01:36.155Z,951.63
2018-04-17T03:02:36.162Z,951.61
2018-04-17T03:03:36.146Z,951.60
2018-04-17T03:04:36.136Z,951.60
2018-04-17T03:05:36.129Z,951.59
2018-04-17T03:06:36.120Z,951.58
2018-04-17T03:07:36.120Z,951.60
2018-04-17T03:08:36.114Z,951.62
2018-04-17T03:09:36.100Z,951.65
2018-04-17T03:10:36.114Z,951.65
2018-04-17T03:11:36.092Z,951.65
2018-04-17T03:12:36.078Z,951.66
2018-04-17T03:13:36.094Z,951.66
2018-04-17T03:14:36.066Z,951.64
2018-04-17T03:15:36.065Z,951.63
2018-04-17T03:16:36.057Z,951.64
2018-04-17T03:17:36.050Z,951.63
2018-04-17T03:18:36.038Z,951.67
2018-04-17T03:19:36.032Z,951.65
2018-04-17T03:20:36.034Z,951.69
2018-04-17T03:21:36.040Z,951.65
2018-04-17T03:22:36.023Z,951.68
2018-04-17T03:23:36.021Z,951.70
2018-04-17T03:24:36.003Z,951.69
2018-04-17T03:25:35.989Z,951.69
2018-04-17T03:26:35.988Z,951.69
2018-04-17T03:27:35.985Z,951.69
2018-04-17T03:28:35.988Z,951.71
2018-04-17T03:29:35.969Z,951.66
2018-04-17T03:30:35.965Z,951.70
2018-04-17T03:31:35.953Z,951.71
2018-04-17T03:32:35.945Z,951.70
2018-04-17T03:33:35.939Z,951.69
2018-04-17T03:34:35.934Z,951.73
2018-04-17T03:35:35.932Z,951.73
2018-04-17T03:36:35.937Z,951.77
2018-04-17T03:37:35.920Z,951.74
2018-04-17T03:38:35.912Z,951.80
2018-04-17T03:39:35.904Z,951.79
2018-04-17T03:40:35.895Z,951.84
2018-04-17T03:41:35.879Z,951.82
2018-04-17T03:42:35.892Z,951.86
2018-04-17T03:43:35.867Z,951.87
2018-04-17T03:44:35.864Z,951.84
2018-04-17T03:45:35.873Z,951.83
2018-04-17T03:46:35.854Z,951.88
2018-04-17T03:47:35.851Z,951.88
2018-04-17T03:48:35.848Z,951.86
2018-04-17T03:49:35.826Z,951.85
2018-04-17T03:50:35.824Z,951.89
2018-04-17T03:51:35.835Z,951.90
2018-04-17T03:52:35.818Z,951.89
2018-04-17T03:53:35.812Z,951.90
2018-04-17T03:54:35.809Z,951.86
2018-04-17T03:55:35.795Z,951.88
2018-04-17T03:56:35.804Z,951.84
2018-04-17T03:57:35.787Z,951.86
2018-04-17T03:58:35.776Z,951.84
2018-04-17T03:59:35.761Z,951.84
2018-04-17T04:00:35.768Z,951.79
2018-04-17T04:01:35.756Z,951.79
2018-04-17T04:02:35.748Z,951.81
2018-04-17T04:03:35.743Z,951.84
2018-04-17T04:04:35.737Z,951.87
2018-04-17T04:05:35.720Z,951.88
2018-04-17T04:06:35.729Z,951.92
2018-04-17T04:07:35.708Z,951.95
2018-04-17T04:08:35.720Z,951.93
2018-04-17T04:09:35.705Z,951.97
2018-04-17T04:10:35.695Z,951.98
2018-04-17T04:11:35.684Z,952.00
2018-04-17T04:12:35.673Z,951.98
2018-04-17T04:13:35.677Z,951.96
2018-04-17T04:14:35.666Z,951.99
2018-04-17T04:15:35.649Z,952.00
2018-04-17T04:16:35.663Z,951.99
2018-04-17T04:17:35.642Z,952.00
2018-04-17T04:18:35.633Z,951.96
2018-04-17T04:19:35.626Z,951.98
2018-04-17T04:20:35.623Z,952.01
2018-04-17T04:21:35.615Z,952.00
2018-04-17T04:22:35.607Z,951.98
2018-04-17T04:23:35.610Z,952.02
2018-04-17T04:24:35.593Z,952.01
2018-04-17T04:25:35.594Z,951.99
2018-04-17T04:26:35.584Z,952.01
2018-04-17T04:27:35.568Z,952.02
2018-04-17T04:28:35.566Z,952.05
2018-04-17T04:29:35.567Z,952.05
2018-04-17T04:30:35.564Z,952.03
2018-04-17T04:31:35.573Z,952.04
2018-04-17T04:32:35.548Z,952.05
2018-04-17T04:33:35.538Z,952.08
2018-04-17T04:34:35.540Z,952.06
2018-04-17T04:35:35.518Z,952.11
2018-04-17T04:36:35.514Z,952.10
2018-04-17T04:37:35.508Z,952.12
2018-04-17T04:38:35.500Z,952.11
2018-04-17T04:39:35.492Z,952.16
2018-04-17T04:40:35.488Z,952.17
2018-04-17T04:41:35.478Z,952.18
2018-04-17T04:42:35.470Z,952.23
2018-04-17T04:43:35.468Z,952.24
2018-04-17T04:44:35.455Z,952.23
2018-04-17T04:45:35.451Z,952.27
2018-04-17T04:46:35.430Z,952.23
2018-04-17T04:47:35.434Z,952.23
2018-04-17T04:48:35.435Z,952.25
2018-04-17T04:49:35.443Z,952.27
2018-04-17T04:50:35.411Z,952.25
2018-04-17T04:51:35.410Z,952.29
2018-04-17T04:52:35.397Z,952.31
2018-04-17T04:53:35.394Z,952.28
2018-04-17T04:54:35.392Z,952.33
2018-04-17T04:55:35.371Z,952.36
2018-04-17T04:56:35.394Z,952.38
2018-04-17T04:57:35.371Z,952.38
2018-04-17T04:58:35.358Z,952.41
2018-04-17T04:59:35.371Z,952.41
2018-04-17T05:00:35.342Z,952.43
2018-04-17T05:01:35.347Z,952.46
2018-04-17T05:02:35.335Z,952.48
2018-04-17T05:03:35.327Z,952.51
2018-04-17T05:04:35.315Z,952.48
2018-04-17T05:05:35.318Z,952.51
2018-04-17T05:06:35.319Z,952.53
2018-04-17T05:07:35.296Z,952.50
2018-04-17T05:08:35.296Z,952.50
2018-04-17T05:09:35.287Z,952.51
2018-04-17T05:10:35.283Z,952.52
2018-04-17T05:11:35.278Z,952.52
2018-04-17T05:12:35.265Z,952.56
2018-04-17T05:13:35.261Z,952.54
2018-04-17T05:14:35.277Z,952.53
2018-04-17T05:15:35.241Z,952.54
2018-04-17T05:16:35.254Z,952.54
2018-04-17T05:17:35.242Z,952.53
2018-04-17T05:18:35.232Z,952.60
2018-04-17T05:19:35.246Z,952.60
2018-04-17T05:20:35.228Z,952.61
2018-04-17T05:21:35.219Z,952.63
2018-04-17T05:22:35.209Z,952.63
2018-04-17T05:23:35.223Z,952.65
2018-04-17T05:24:35.221Z,952.70
2018-04-17T05:25:35.209Z,952.73
2018-04-17T05:26:35.186Z,952.77
2018-04-17T05:27:35.180Z,952.77
2018-04-17T05:28:35.182Z,952.80
2018-04-17T05:29:35.168Z,952.80
2018-04-17T05:30:35.166Z,952.86
2018-04-17T05:31:35.177Z,952.86
2018-04-17T05:32:35.147Z,952.86
2018-04-17T05:33:35.159Z,952.87
2018-04-17T05:34:35.139Z,952.89
2018-04-17T05:35:35.137Z,952.90
2018-04-17T05:36:35.130Z,952.89
2018-04-17T05:37:35.121Z,952.88
2018-04-17T05:38:35.124Z,952.89
2018-04-17T05:39:35.130Z,952.97
2018-04-17T05:40:35.119Z,952.95
2018-04-17T05:41:35.111Z,952.97
2018-04-17T05:42:35.134Z,952.99
2018-04-17T05:43:35.103Z,953.03
2018-04-17T05:44:35.087Z,953.01
2018-04-17T05:45:35.085Z,952.99
2018-04-17T05:46:35.083Z,953.02
2018-04-17T05:47:35.078Z,953.06
2018-04-17T05:48:35.078Z,953.06
2018-04-17T05:49:35.067Z,953.06
2018-04-17T05:50:35.065Z,953.05
2018-04-17T05:51:35.066Z,953.12
2018-04-17T05:52:35.064Z,953.12
2018-04-17T05:53:35.041Z,953.08
2018-04-17T05:54:35.048Z,953.12
2018-04-17T05:55:35.038Z,953.14
2018-04-17T05:56:35.045Z,953.11
2018-04-17T05:57:35.075Z,953.13
2018-04-17T05:58:35.024Z,953.17
2018-04-17T05:59:35.021Z,953.14
2018-04-17T06:00:35.016Z,953.18
2018-04-17T06:01:34.999Z,953.17
2018-04-17T06:02:35.006Z,953.14
2018-04-17T06:03:35.014Z,953.14
2018-04-17T06:04:34.996Z,953.17
2018-04-17T06:05:34.994Z,953.16
2018-04-17T06:06:35.000Z,953.17
2018-04-17T06:07:34.986Z,953.16
2018-04-17T06:08:34.975Z,953.13
2018-04-17T06:09:34.969Z,953.16
2018-04-17T06:10:34.977Z,953.13
2018-04-17T06:11:34.976Z,953.15
2018-04-17T06:12:34.968Z,953.14
2018-04-17T06:13:34.957Z,953.13
2018-04-17T06:14:34.957Z,953.17
2018-04-17T06:15:34.966Z,953.17
2018-04-17T06:16:34.942Z,953.18
2018-04-17T06:17:34.969Z,953.21
2018-04-17T06:18:34.934Z,953.20
2018-04-17T06:19:34.933Z,953.22
2018-04-17T06:20:34.939Z,953.25
2018-04-17T06:21:34.928Z,953.26
2018-04-17T06:22:34.938Z,953.27
2018-04-17T06:23:34.922Z,953.28
2018-04-17T06:24:34.924Z,953.30
2018-04-17T06:25:34.938Z,953.28
2018-04-17T06:26:34.902Z,953.27
2018-04-17T06:27:34.899Z,953.25
2018-04-17T06:28:34.905Z,953.26
2018-04-17T06:29:34.899Z,953.29
2018-04-17T06:30:34.893Z,953.34
2018-04-17T06:31:34.888Z,953.34
2018-04-17T06:32:34.880Z,953.33
2018-04-17T06:33:34.884Z,953.33
2018-04-17T06:34:34.897Z,953.39
2018-04-17T06:35:34.878Z,953.39
2018-04-17T06:36:34.899Z,953.37
2018-04-17T06:37:34.868Z,953.34
2018-04-17T06:38:34.872Z,953.35
2018-04-17T06:39:34.874Z,953.40
2018-04-17T06:40:34.866Z,953.37
2018-04-17T06:41:34.863Z,953.39
2018-04-17T06:42:34.864Z,953.40
2018-04-17T06:43:34.859Z,953.45
2018-04-17T06:44:34.848Z,953.42
2018-04-17T06:45:34.860Z,953.46
2018-04-17T06:46:34.867Z,953.48
2018-04-17T06:47:34.895Z,953.51
2018-04-17T06:48:34.842Z,953.51
2018-04-17T06:49:34.850Z,953.53
2018-04-17T06:50:34.840Z,953.53
2018-04-17T06:51:34.853Z,953.54
2018-04-17T06:52:34.837Z,953.51
2018-04-17T06:53:34.837Z,953.57
2018-04-17T06:54:34.831Z,953.57
2018-04-17T06:55:34.825Z,953.61
2018-04-17T06:56:34.831Z,953.60
2018-04-17T06:57:34.831Z,953.62
2018-04-17T06:58:34.867Z,953.61
2018-04-17T06:59:34.819Z,953.63
2018-04-17T07:00:34.809Z,953.62
2018-04-17T07:01:34.832Z,953.63
2018-04-17T07:02:34.801Z,953.62
2018-04-17T07:03:34.816Z,953.61
2018-04-17T07:04:34.811Z,953.66
2018-04-17T07:05:34.800Z,953.67
2018-04-17T07:06:34.807Z,953.68
2018-04-17T07:07:34.804Z,953.69
2018-04-17T07:08:34.810Z,953.69
2018-04-17T07:09:34.808Z,953.73
2018-04-17T07:10:34.792Z,953.69
2018-04-17T07:11:34.867Z,953.68
2018-04-17T07:12:34.801Z,953.73
2018-04-17T07:13:34.795Z,953.73
2018-04-17T07:14:34.789Z,953.78
2018-04-17T07:15:34.797Z,953.74
2018-04-17T07:16:34.791Z,953.75
2018-04-17T07:17:34.794Z,953.75
2018-04-17T07:18:34.798Z,953.78
2018-04-17T07:19:34.788Z,953.72
2018-04-17T07:20:34.784Z,953.78
2018-04-17T07:21:34.785Z,953.77
2018-04-17T07:22:34.799Z,953.81
2018-04-17T07:23:34.801Z,953.77
2018-04-17T07:24:34.800Z,953.80
2018-04-17T07:25:34.779Z,953.80
2018-04-17T07:26:34.766Z,953.82
2018-04-17T07:27:34.793Z,953.85
2018-04-17T07:28:34.777Z,953.92
2018-04-17T07:29:34.770Z,953.95
2018-04-17T07:30:34.779Z,953.96
2018-04-17T07:31:34.785Z,953.97
2018-04-17T07:32:34.779Z,953.99
2018-04-17T07:33:34.780Z,954.02
2018-04-17T07:34:34.828Z,953.99
2018-04-17T07:35:34.795Z,953.97
2018-04-17T07:36:34.805Z,954.00
2018-04-17T07:37:34.808Z,953.98
2018-04-17T07:38:34.810Z,954.01
2018-04-17T07:39:34.817Z,954.01
2018-04-17T07:40:34.891Z,954.03
2018-04-17T07:41:34.828Z,954.00
2018-04-17T07:42:34.840Z,954.02
2018-04-17T07:43:34.847Z,954.00
2018-04-17T07:44:34.854Z,954.02
2018-04-17T07:45:34.882Z,953.99
2018-04-17T07:46:34.880Z,954.00
2018-04-17T07:47:34.893Z,954.01
2018-04-17T07:48:34.891Z,953.99
2018-04-17T07:49:34.910Z,954.01
2018-04-17T07:50:34.912Z,954.05
2018-04-17T07:51:34.919Z,954.09
2018-04-17T07:52:34.945Z,954.12
2018-04-17T07:53:34.939Z,954.08
2018-04-17T07:54:34.947Z,954.13
2018-04-17T07:55:34.964Z,954.13
2018-04-17T07:56:34.971Z,954.17
2018-04-17T07:57:35.029Z,954.18
2018-04-17T07:58:34.992Z,954.17
2018-04-17T07:59:35.008Z,954.18
2018-04-17T08:00:35.022Z,954.17
2018-04-17T08:01:35.033Z,954.18
2018-04-17T08:02:35.064Z,954.21
2018-04-17T08:03:35.079Z,954.18
2018-04-17T08:04:35.080Z,954.17
2018-04-17T08:05:35.089Z,954.17
2018-04-17T08:06:35.095Z,954.20
2018-04-17T08:07:35.102Z,954.23
2018-04-17T08:08:35.120Z,954.21
2018-04-17T08:09:35.126Z,954.21
2018-04-17T08:10:35.131Z,954.26
2018-04-17T08:11:35.163Z,954.28
2018-04-17T08:12:35.169Z,954.32
2018-04-17T08:13:35.180Z,954.36
2018-04-17T08:14:35.189Z,954.38
2018-04-17T08:15:35.201Z,954.36
2018-04-17T08:16:35.214Z,954.39
2018-04-17T08:17:35.287Z,954.36
2018-04-17T08:18:35.264Z,954.39
2018-04-17T08:19:35.254Z,954.38
2018-04-17T08:20:35.287Z,954.38
2018-04-17T08:21:35.289Z,954.38
2018-04-17T08:22:35.302Z,954.38
2018-04-17T08:23:35.319Z,954.41
2018-04-17T08:24:35.327Z,954.43
2018-04-17T08:25:35.337Z,954.42
2018-04-17T08:26:35.345Z,954.47
2018-04-17T08:27:35.375Z,954.46
2018-04-17T08:28:35.384Z,954.52
2018-04-17T08:29:35.412Z,954.50
2018-04-17T08:30:35.457Z,954.54
2018-04-17T08:31:35.434Z,954.57
2018-04-17T08:32:35.443Z,954.60
2018-04-17T08:33:35.472Z,954.62
2018-04-17T08:34:35.470Z,954.61
2018-04-17T08:35:35.492Z,954.65
2018-04-17T08:36:35.534Z,954.68
2018-04-17T08:37:35.512Z,954.73
2018-04-17T08:38:35.538Z,954.71
2018-04-17T08:39:35.572Z,954.75
2018-04-17T08:40:35.558Z,954.77
2018-04-17T08:41:35.580Z,954.79
2018-04-17T08:42:35.592Z,954.83
2018-04-17T08:43:35.605Z,954.81
2018-04-17T08:44:35.626Z,954.88
2018-04-17T08:45:35.633Z,954.87
2018-04-17T08:46:35.665Z,954.85
2018-04-17T08:47:35.699Z,954.85
2018-04-17T08:48:35.696Z,954.87
2018-04-17T08:49:35.717Z,954.84
2018-04-17T08:50:35.707Z,954.84
2018-04-17T08:51:35.734Z,954.82
2018-04-17T08:52:35.740Z,954.84
2018-04-17T08:53:35.750Z,954.83
2018-04-17T08:54:35.765Z,954.81
2018-04-17T08:55:35.782Z,954.82
2018-04-17T08:56:35.805Z,954.81
2018-04-17T08:57:35.816Z,954.85
2018-04-17T08:58:35.831Z,954.81
2018-04-17T08:59:35.881Z,954.81
2018-04-17T09:00:35.864Z,954.83
2018-04-17T09:01:35.876Z,954.82
2018-04-17T09:02:35.892Z,954.82
2018-04-17T09:03:35.908Z,954.84
2018-04-17T09:04:35.922Z,954.86
2018-04-17T09:05:35.930Z,954.85
2018-04-17T09:06:35.951Z,954.88
2018-04-17T09:07:35.969Z,954.91
2018-04-17T09:08:35.984Z,954.93
2018-04-17T09:09:35.999Z,954.92
2018-04-17T09:10:36.028Z,954.86
2018-04-17T09:11:36.036Z,954.88
2018-04-17T09:12:36.043Z,954.91
2018-04-17T09:13:36.072Z,954.88
2018-04-17T09:14:36.109Z,954.92
2018-04-17T09:15:36.108Z,954.94
2018-04-17T09:16:36.108Z,954.92
2018-04-17T09:17:36.123Z,954.95
2018-04-17T09:18:36.150Z,954.97
2018-04-17T09:19:36.184Z,954.96
2018-04-17T09:20:36.177Z,954.97
2018-04-17T09:21:36.200Z,954.99
2018-04-17T09:22:36.222Z,954.98
2018-04-17T09:23:36.256Z,955.01
2018-04-17T09:24:36.274Z,955.00
2018-04-17T09:25:36.267Z,955.00
2018-04-17T09:26:36.283Z,955.02
2018-04-17T09:27:36.382Z,954.98
2018-04-17T09:28:36.319Z,955.02
2018-04-17T09:29:36.344Z,955.02
2018-04-17T09:30:36.370Z,955.01
2018-04-17T09:31:36.388Z,955.02
2018-04-17T09:32:36.397Z,955.00
2018-04-17T09:33:36.417Z,954.98
2018-04-17T09:34:36.429Z,954.95
2018-04-17T09:35:36.451Z,954.98
2018-04-17T09:36:36.479Z,954.93
2018-04-17T09:37:36.481Z,954.97
2018-04-17T09:38:36.503Z,954.95
2018-04-17T09:39:36.509Z,954.93
2018-04-17T09:40:36.537Z,954.93
2018-04-17T09:41:36.552Z,954.94
2018-04-17T09:42:36.568Z,954.93
2018-04-17T09:43:36.583Z,954.94
2018-04-17T09:44:36.628Z,954.93
2018-04-17T09:45:36.626Z,954.88
2018-04-17T09:46:36.633Z,954.86
2018-04-17T09:47:36.655Z,954.89
2018-04-17T09:48:36.682Z,954.87
2018-04-17T09:49:36.699Z,954.88
2018-04-17T09:50:36.735Z,954.86
2018-04-17T09:51:36.721Z,954.91
2018-04-17T09:52:36.744Z,954.92
2018-04-17T09:53:36.762Z,954.91
2018-04-17T09:54:36.787Z,954.87
2018-04-17T09:55:36.801Z,954.88
2018-04-17T09:56:36.816Z,954.91
2018-04-17T09:57:36.920Z,954.90
2018-04-17T09:58:36.870Z,954.91
2018-04-17T09:59:36.874Z,954.94
2018-04-17T10:00:36.889Z,954.90
2018-04-17T10:01:36.902Z,954.89
2018-04-17T10:02:36.916Z,954.89
2018-04-17T10:03:36.967Z,954.88
2018-04-17T10:04:36.964Z,954.87
2018-04-17T10:05:36.976Z,954.90
2018-04-17T10:06:36.985Z,954.97
2018-04-17T10:07:37.019Z,954.93
2018-04-17T10:08:37.047Z,954.96
2018-04-17T10:09:37.045Z,954.87
2018-04-17T10:10:37.063Z,954.92
2018-04-17T10:11:37.078Z,954.91
2018-04-17T10:12:37.100Z,954.92
2018-04-17T10:13:37.119Z,954.86
2018-04-17T10:14:37.136Z,954.87
2018-04-17T10:15:37.146Z,954.83
2018-04-17T10:16:37.187Z,954.78
2018-04-17T10:17:37.197Z,954.84
2018-04-17T10:18:37.206Z,954.85
2018-04-17T10:19:37.229Z,954.86
2018-04-17T10:20:37.238Z,954.81
2018-04-17T10:21:37.258Z,954.84
2018-04-17T10:22:37.295Z,954.85
2018-04-17T10:23:37.298Z,954.86
2018-04-17T10:24:37.348Z,954.81
2018-04-17T10:25:37.327Z,954.81
2018-04-17T10:26:37.347Z,954.77
2018-04-17T10:27:37.375Z,954.78
2018-04-17T10:28:37.379Z,954.82
2018-04-17T10:29:37.395Z,954.77
2018-04-17T10:30:37.484Z,954.82
2018-04-17T10:31:37.446Z,954.80
2018-04-17T10:32:37.447Z,954.84
2018-04-17T10:33:37.469Z,954.80
2018-04-17T10:34:37.496Z,954.79
2018-04-17T10:35:37.529Z,954.72
2018-04-17T10:36:37.527Z,954.80
2018-04-17T10:37:37.543Z,954.85
2018-04-17T10:38:37.553Z,954.79
2018-04-17T10:39:37.576Z,954.76
2018-04-17T10:40:37.603Z,954.72
2018-04-17T10:41:37.626Z,954.75
2018-04-17T10:42:37.640Z,954.79
2018-04-17T10:43:37.648Z,954.74
2018-04-17T10:44:37.670Z,954.69
2018-04-17T10:45:37.690Z,954.75
2018-04-17T10:46:37.720Z,954.72
2018-04-17T10:47:37.727Z,954.75
2018-04-17T10:48:37.750Z,954.62
2018-04-17T10:49:37.778Z,954.72
2018-04-17T10:50:37.774Z,954.72
2018-04-17T10:51:37.801Z,954.75
2018-04-17T10:52:37.810Z,954.73
2018-04-17T10:53:37.834Z,954.78
2018-04-17T10:54:37.859Z,954.76
2018-04-17T10:55:37.863Z,954.76
2018-04-17T10:56:37.886Z,954.79
2018-04-17T10:57:37.920Z,954.66
2018-04-17T10:58:37.930Z,954.68
2018-04-17T10:59:37.941Z,954.66
2018-04-17T11:00:37.942Z,954.76
2018-04-17T11:01:38.042Z,954.84
2018-04-17T11:02:38.002Z,954.77
2018-04-17T11:03:37.988Z,954.80
2018-04-17T11:04:37.996Z,954.80
2018-04-17T11:05:38.033Z,954.80
2018-04-17T11:06:38.033Z,954.74
2018-04-17T11:07:38.046Z,954.79
2018-04-17T11:08:38.066Z,954.83
2018-04-17T11:09:38.077Z,954.84
2018-04-17T11:10:38.107Z,954.89
2018-04-17T11:11:38.113Z,954.88
2018-04-17T11:12:38.114Z,954.79
2018-04-17T11:13:38.140Z,954.81
2018-04-17T11:14:38.139Z,954.89
2018-04-17T11:15:38.152Z,954.88
2018-04-17T11:16:38.180Z,954.83
2018-04-17T11:17:38.201Z,954.82
2018-04-17T11:18:38.205Z,954.74
2018-04-17T11:19:38.218Z,954.77
2018-04-17T11:20:38.224Z,954.79
2018-04-17T11:21:38.239Z,954.82
2018-04-17T11:22:38.279Z,954.81
2018-04-17T11:23:38.292Z,954.78
2018-04-17T11:24:38.290Z,954.81
2018-04-17T11:25:38.287Z,954.90
2018-04-17T11:26:38.314Z,954.86
2018-04-17T11:27:38.301Z,954.87
2018-04-17T11:28:38.327Z,954.83
2018-04-17T11:29:38.333Z,954.88
2018-04-17T11:30:38.337Z,954.88
2018-04-17T11:31:38.363Z,954.86
2018-04-17T11:32:38.404Z,954.89
2018-04-17T11:33:38.390Z,954.88
2018-04-17T11:34:38.423Z,954.81
2018-04-17T11:35:38.409Z,954.87
2018-04-17T11:36:38.420Z,954.84
2018-04-17T11:37:38.437Z,954.80
2018-04-17T11:38:38.454Z,954.92
2018-04-17T11:39:38.468Z,954.87
2018-04-17T11:40:38.470Z,954.80
2018-04-17T11:41:38.476Z,954.86
2018-04-17T11:42:38.490Z,954.91
2018-04-17T11:43:38.505Z,954.89
2018-04-17T11:44:38.524Z,954.92
2018-04-17T11:45:38.525Z,954.98
2018-04-17T11:46:38.527Z,954.92
2018-04-17T11:47:38.543Z,954.94
2018-04-17T11:48:38.593Z,954.94
2018-04-17T11:49:38.561Z,954.91
2018-04-17T11:50:38.581Z,954.89
2018-04-17T11:51:38.583Z,954.89
2018-04-17T11:52:38.596Z,954.89
2018-04-17T11:53:38.607Z,954.91
2018-04-17T11:54:38.623Z,954.87
2018-04-17T11:55:38.628Z,954.94
2018-04-17T11:56:38.638Z,954.94
2018-04-17T11:57:38.661Z,954.91
2018-04-17T11:58:38.674Z,954.98
2018-04-17T11:59:38.697Z,954.92
2018-04-17T12:00:38.712Z,955.03
2018-04-17T12:01:38.738Z,955.03
2018-04-17T12:02:38.733Z,955.03
2018-04-17T12:03:38.743Z,955.04
2018-04-17T12:04:38.763Z,955.06
2018-04-17T12:05:38.777Z,954.91
2018-04-17T12:06:38.787Z,954.96
2018-04-17T12:07:38.807Z,955.01
2018-04-17T12:08:38.822Z,954.93
2018-04-17T12:09:38.833Z,954.98
2018-04-17T12:10:38.859Z,954.98
2018-04-17T12:11:38.844Z,954.99
2018-04-17T12:12:38.893Z,955.02
2018-04-17T12:13:38.876Z,955.03
2018-04-17T12:14:38.938Z,954.97
2018-04-17T12:15:38.893Z,955.00
2018-04-17T12:16:38.911Z,955.01
2018-04-17T12:17:38.926Z,955.04
2018-04-17T12:18:38.932Z,955.09
2018-04-17T12:19:38.950Z,954.99
2018-04-17T12:20:38.958Z,954.99
2018-04-17T12:21:38.965Z,954.99
2018-04-17T12:22:38.998Z,954.91
2018-04-17T12:23:38.984Z,955.01
2018-04-17T12:24:39.004Z,954.92
2018-04-17T12:25:39.011Z,954.85
2018-04-17T12:26:39.026Z,954.87
2018-04-17T12:27:39.060Z,954.88
2018-04-17T12:28:39.065Z,954.90
2018-04-17T12:29:39.071Z,954.90
2018-04-17T12:30:39.076Z,954.91
2018-04-17T12:31:39.087Z,954.93
2018-04-17T12:32:39.097Z,954.83
2018-04-17T12:33:39.104Z,954.89
2018-04-17T12:34:39.191Z,954.82
2018-04-17T12:35:39.125Z,954.87
2018-04-17T12:36:39.131Z,954.91
2018-04-17T12:37:39.139Z,954.84
2018-04-17T12:38:39.144Z,954.89
2018-04-17T12:39:39.150Z,954.84
2018-04-17T12:40:39.153Z,954.89
2018-04-17T12:41:39.185Z,954.85
2018-04-17T12:42:39.164Z,954.85
2018-04-17T12:43:39.169Z,954.83
2018-04-17T12:44:39.184Z,954.73
2018-04-17T12:45:39.180Z,954.73
2018-04-17T12:46:39.201Z,954.76
2018-04-17T12:47:39.202Z,954.74
2018-04-17T12:48:39.204Z,954.71
2018-04-17T12:49:39.200Z,954.67
2018-04-17T12:50:39.197Z,954.77
2018-04-17T12:51:39.207Z,954.74
2018-04-17T12:52:39.204Z,954.72
2018-04-17T12:53:39.220Z,954.70
2018-04-17T12:54:39.235Z,954.79
2018-04-17T12:55:39.233Z,954.80
2018-04-17T12:56:39.238Z,954.76
2018-04-17T12:57:39.244Z,954.77
2018-04-17T12:58:39.229Z,954.75
2018-04-17T12:59:39.241Z,954.72
2018-04-17T13:00:39.241Z,954.71
2018-04-17T13:01:39.236Z,954.77
2018-04-17T13:02:39.243Z,954.72
2018-04-17T13:03:39.237Z,954.71
2018-04-17T13:04:39.241Z,954.70
2018-04-17T13:05:39.261Z,954.72
2018-04-17T13:06:39.254Z,954.68
2018-04-17T13:07:39.307Z,954.61
2018-04-17T13:08:39.281Z,954.63
2018-04-17T13:09:39.272Z,954.67
2018-04-17T13:10:39.257Z,954.70
2018-04-17T13:11:39.263Z,954.69